Hlavní strana
METAR-TAF:

METAR-TAF

Letiště :

Morristown, Tennessee, Spojené státy americké

zeměpisná šířka: 36-10-46N, zeměpisná délka: 083-22-32W, výška: 400 m

Aktuální stav počasí

Zpráva byla vytvořena před 25 minutami, v 02:35 UTC
Západoseverozápadní vítr 3 kt
Teplota 22°C
Vlhkost vzduchu 73%
Tlak 1018 hPa
Viditelnost: 16.1 km
Polojasno ve výšce 5000 ft
Oblačno až skoro zataženo ve výšce 6500 ft
Zataženo ve výšce 7500 ft

METAR: KMOR 300235Z AUTO 29003KT 10SM SCT050 BKN065 OVC075 22/17 A3005 RMK A01

Čas: 22:00 (03:00 UTC)


TAF: chybějící

Stav a předpovědi počasí z více než 4 000 letišť (zprávy METAR a TAF).

Červené a žluté tečky na mapě představují dostupné meteorologické stanice.

Když kurzor umístíte na tečku, zobrazí se název stanice.

Pak kliknutím zobrazíte stav a předpověď počasí.

Chcete-li změnit mapu, kliknutím na zelené tlačítko se znaménkem +mapu přiblížíte, kliknutím na zelené tlačítko se znaménkem – mapu oddálíte a kliknutím na zelené šipky přejdete na sousední mapy.


METAR-TAF: